sensor_id;sensor_type;location;lat;lon;timestamp;temperature;humidity
69546;SHT31;56766;52.260;20.746;2023-04-25T00:00:34;10.02;77.68
69546;SHT31;56766;52.260;20.746;2023-04-25T00:03:18;9.99;77.88
69546;SHT31;56766;52.260;20.746;2023-04-25T00:05:45;9.97;78.01
69546;SHT31;56766;52.260;20.746;2023-04-25T00:08:11;9.95;78.26
69546;SHT31;56766;52.260;20.746;2023-04-25T00:10:37;9.92;77.99
69546;SHT31;56766;52.260;20.746;2023-04-25T00:13:03;9.91;78.21
69546;SHT31;56766;52.260;20.746;2023-04-25T00:15:29;9.90;78.43
69546;SHT31;56766;52.260;20.746;2023-04-25T00:17:56;9.91;78.49
69546;SHT31;56766;52.260;20.746;2023-04-25T00:20:22;9.89;78.34
69546;SHT31;56766;52.260;20.746;2023-04-25T00:22:50;9.85;78.33
69546;SHT31;56766;52.260;20.746;2023-04-25T00:25:19;9.81;78.20
69546;SHT31;56766;52.260;20.746;2023-04-25T00:27:45;9.80;78.48
69546;SHT31;56766;52.260;20.746;2023-04-25T00:30:11;9.80;78.61
69546;SHT31;56766;52.260;20.746;2023-04-25T00:32:38;9.81;78.44
69546;SHT31;56766;52.260;20.746;2023-04-25T00:35:04;9.83;78.62
69546;SHT31;56766;52.260;20.746;2023-04-25T00:37:30;9.84;78.80
69546;SHT31;56766;52.260;20.746;2023-04-25T00:39:58;9.86;78.83
69546;SHT31;56766;52.260;20.746;2023-04-25T00:42:25;9.88;79.10
69546;SHT31;56766;52.260;20.746;2023-04-25T00:44:52;9.90;79.10
69546;SHT31;56766;52.260;20.746;2023-04-25T00:47:19;9.91;79.56
69546;SHT31;56766;52.260;20.746;2023-04-25T00:49:45;9.93;80.00
69546;SHT31;56766;52.260;20.746;2023-04-25T00:52:12;9.93;80.17
69546;SHT31;56766;52.260;20.746;2023-04-25T00:54:38;9.91;79.97
69546;SHT31;56766;52.260;20.746;2023-04-25T00:57:05;9.88;80.01
69546;SHT31;56766;52.260;20.746;2023-04-25T00:59:31;9.85;80.16
69546;SHT31;56766;52.260;20.746;2023-04-25T01:01:58;9.84;80.50
69546;SHT31;56766;52.260;20.746;2023-04-25T01:04:27;9.84;80.68
69546;SHT31;56766;52.260;20.746;2023-04-25T01:06:54;9.86;80.80
69546;SHT31;56766;52.260;20.746;2023-04-25T01:09:22;9.89;81.12
69546;SHT31;56766;52.260;20.746;2023-04-25T01:11:49;9.92;81.39
69546;SHT31;56766;52.260;20.746;2023-04-25T01:14:16;9.94;81.68
69546;SHT31;56766;52.260;20.746;2023-04-25T01:16:42;9.94;81.77
69546;SHT31;56766;52.260;20.746;2023-04-25T01:19:11;9.94;81.92
69546;SHT31;56766;52.260;20.746;2023-04-25T01:21:41;9.95;82.06
69546;SHT31;56766;52.260;20.746;2023-04-25T01:24:08;9.95;81.77
69546;SHT31;56766;52.260;20.746;2023-04-25T01:26:34;9.93;81.64
69546;SHT31;56766;52.260;20.746;2023-04-25T01:29:04;9.91;81.79
69546;SHT31;56766;52.260;20.746;2023-04-25T01:31:32;9.91;82.02
69546;SHT31;56766;52.260;20.746;2023-04-25T01:34:00;9.90;81.95
69546;SHT31;56766;52.260;20.746;2023-04-25T01:36:26;9.89;81.71
69546;SHT31;56766;52.260;20.746;2023-04-25T01:38:52;9.89;81.73
69546;SHT31;56766;52.260;20.746;2023-04-25T01:41:18;9.88;82.01
69546;SHT31;56766;52.260;20.746;2023-04-25T01:43:45;9.88;82.17
69546;SHT31;56766;52.260;20.746;2023-04-25T01:46:11;9.87;82.52
69546;SHT31;56766;52.260;20.746;2023-04-25T01:48:38;9.87;82.79
69546;SHT31;56766;52.260;20.746;2023-04-25T01:51:04;9.86;82.51
69546;SHT31;56766;52.260;20.746;2023-04-25T01:53:30;9.83;82.33
69546;SHT31;56766;52.260;20.746;2023-04-25T01:55:56;9.81;82.55
69546;SHT31;56766;52.260;20.746;2023-04-25T01:58:22;9.78;82.64
69546;SHT31;56766;52.260;20.746;2023-04-25T02:00:48;9.79;82.73
69546;SHT31;56766;52.260;20.746;2023-04-25T02:03:14;9.80;82.99
69546;SHT31;56766;52.260;20.746;2023-04-25T02:05:40;9.78;82.84
69546;SHT31;56766;52.260;20.746;2023-04-25T02:08:07;9.78;82.64
69546;SHT31;56766;52.260;20.746;2023-04-25T02:10:35;9.79;82.39
69546;SHT31;56766;52.260;20.746;2023-04-25T02:13:02;9.78;82.48
69546;SHT31;56766;52.260;20.746;2023-04-25T02:15:28;9.79;82.91
69546;SHT31;56766;52.260;20.746;2023-04-25T02:17:54;9.80;83.15
69546;SHT31;56766;52.260;20.746;2023-04-25T02:20:22;9.81;83.08
69546;SHT31;56766;52.260;20.746;2023-04-25T02:22:49;9.82;83.25
69546;SHT31;56766;52.260;20.746;2023-04-25T02:25:15;9.85;83.40
69546;SHT31;56766;52.260;20.746;2023-04-25T02:27:42;9.86;83.75
69546;SHT31;56766;52.260;20.746;2023-04-25T02:30:09;9.88;83.88
69546;SHT31;56766;52.260;20.746;2023-04-25T02:32:35;9.89;83.94
69546;SHT31;56766;52.260;20.746;2023-04-25T02:35:02;9.90;83.95
69546;SHT31;56766;52.260;20.746;2023-04-25T02:37:33;9.93;83.94
69546;SHT31;56766;52.260;20.746;2023-04-25T02:40:01;9.95;84.06
69546;SHT31;56766;52.260;20.746;2023-04-25T02:42:30;9.97;83.90
69546;SHT31;56766;52.260;20.746;2023-04-25T02:44:56;9.97;83.90
69546;SHT31;56766;52.260;20.746;2023-04-25T02:47:22;9.99;83.86
69546;SHT31;56766;52.260;20.746;2023-04-25T02:49:48;9.99;83.66
69546;SHT31;56766;52.260;20.746;2023-04-25T02:52:14;10.01;83.66
69546;SHT31;56766;52.260;20.746;2023-04-25T02:54:40;10.04;83.81
69546;SHT31;56766;52.260;20.746;2023-04-25T02:57:07;10.06;83.97
69546;SHT31;56766;52.260;20.746;2023-04-25T02:59:33;10.09;84.09
69546;SHT31;56766;52.260;20.746;2023-04-25T03:02:00;10.10;84.18
69546;SHT31;56766;52.260;20.746;2023-04-25T03:04:26;10.12;84.26
69546;SHT31;56766;52.260;20.746;2023-04-25T03:06:53;10.15;84.18
69546;SHT31;56766;52.260;20.746;2023-04-25T03:09:19;10.17;84.02
69546;SHT31;56766;52.260;20.746;2023-04-25T03:11:45;10.20;84.20
69546;SHT31;56766;52.260;20.746;2023-04-25T03:14:12;10.23;84.09
69546;SHT31;56766;52.260;20.746;2023-04-25T03:16:39;10.27;84.23
69546;SHT31;56766;52.260;20.746;2023-04-25T03:19:06;10.31;84.29
69546;SHT31;56766;52.260;20.746;2023-04-25T03:21:34;10.35;84.55
69546;SHT31;56766;52.260;20.746;2023-04-25T03:24:03;10.40;84.36
69546;SHT31;56766;52.260;20.746;2023-04-25T03:26:30;10.47;84.56
69546;SHT31;56766;52.260;20.746;2023-04-25T03:28:56;10.52;84.62
69546;SHT31;56766;52.260;20.746;2023-04-25T03:31:22;10.58;84.81
69546;SHT31;56766;52.260;20.746;2023-04-25T03:33:48;10.66;84.72
69546;SHT31;56766;52.260;20.746;2023-04-25T03:36:14;10.74;84.71
69546;SHT31;56766;52.260;20.746;2023-04-25T03:38:40;10.81;84.87
69546;SHT31;56766;52.260;20.746;2023-04-25T03:41:09;10.89;84.80
69546;SHT31;56766;52.260;20.746;2023-04-25T03:43:35;10.95;84.72
69546;SHT31;56766;52.260;20.746;2023-04-25T03:46:01;11.03;84.45
69546;SHT31;56766;52.260;20.746;2023-04-25T03:48:27;11.09;84.36
69546;SHT31;56766;52.260;20.746;2023-04-25T03:50:54;11.14;84.41
69546;SHT31;56766;52.260;20.746;2023-04-25T03:53:20;11.19;84.35
69546;SHT31;56766;52.260;20.746;2023-04-25T03:55:46;11.22;84.43
69546;SHT31;56766;52.260;20.746;2023-04-25T03:58:13;11.25;84.41
69546;SHT31;56766;52.260;20.746;2023-04-25T04:00:39;11.27;84.36
69546;SHT31;56766;52.260;20.746;2023-04-25T04:03:05;11.31;84.47
69546;SHT31;56766;52.260;20.746;2023-04-25T04:05:31;11.33;84.34
69546;SHT31;56766;52.260;20.746;2023-04-25T04:07:58;11.37;84.38
69546;SHT31;56766;52.260;20.746;2023-04-25T04:10:24;11.40;84.39
69546;SHT31;56766;52.260;20.746;2023-04-25T04:12:51;11.42;84.30
69546;SHT31;56766;52.260;20.746;2023-04-25T04:15:17;11.45;84.34
69546;SHT31;56766;52.260;20.746;2023-04-25T04:17:43;11.47;84.30
69546;SHT31;56766;52.260;20.746;2023-04-25T04:20:10;11.48;84.29
69546;SHT31;56766;52.260;20.746;2023-04-25T04:22:36;11.50;84.30
69546;SHT31;56766;52.260;20.746;2023-04-25T04:25:02;11.52;84.35
69546;SHT31;56766;52.260;20.746;2023-04-25T04:27:32;11.51;84.32
69546;SHT31;56766;52.260;20.746;2023-04-25T04:29:58;11.51;84.37
69546;SHT31;56766;52.260;20.746;2023-04-25T04:32:24;11.49;84.39
69546;SHT31;56766;52.260;20.746;2023-04-25T04:34:50;11.45;84.48
69546;SHT31;56766;52.260;20.746;2023-04-25T04:37:17;11.43;84.58
69546;SHT31;56766;52.260;20.746;2023-04-25T04:39:45;11.40;84.62
69546;SHT31;56766;52.260;20.746;2023-04-25T04:42:11;11.38;84.79
69546;SHT31;56766;52.260;20.746;2023-04-25T04:44:38;11.37;84.80
69546;SHT31;56766;52.260;20.746;2023-04-25T04:47:05;11.37;84.80
69546;SHT31;56766;52.260;20.746;2023-04-25T04:49:32;11.37;84.80
69546;SHT31;56766;52.260;20.746;2023-04-25T04:51:59;11.38;84.80
69546;SHT31;56766;52.260;20.746;2023-04-25T04:54:26;11.42;84.80
69546;SHT31;56766;52.260;20.746;2023-04-25T04:56:52;11.45;84.77
69546;SHT31;56766;52.260;20.746;2023-04-25T04:59:18;11.49;84.74
69546;SHT31;56766;52.260;20.746;2023-04-25T05:01:45;11.50;84.68
69546;SHT31;56766;52.260;20.746;2023-04-25T05:04:13;11.46;84.75
69546;SHT31;56766;52.260;20.746;2023-04-25T05:06:39;11.44;84.80
69546;SHT31;56766;52.260;20.746;2023-04-25T05:09:06;11.43;84.80
69546;SHT31;56766;52.260;20.746;2023-04-25T05:11:33;11.40;84.83
69546;SHT31;56766;52.260;20.746;2023-04-25T05:13:59;11.38;84.90
69546;SHT31;56766;52.260;20.746;2023-04-25T05:16:25;11.38;84.98
69546;SHT31;56766;52.260;20.746;2023-04-25T05:18:51;11.39;85.00
69546;SHT31;56766;52.260;20.746;2023-04-25T05:21:17;11.39;84.93
69546;SHT31;56766;52.260;20.746;2023-04-25T05:23:42;11.35;84.94
69546;SHT31;56766;52.260;20.746;2023-04-25T05:26:09;11.33;84.96
69546;SHT31;56766;52.260;20.746;2023-04-25T05:28:40;11.30;85.06
69546;SHT31;56766;52.260;20.746;2023-04-25T05:31:09;11.32;85.10
69546;SHT31;56766;52.260;20.746;2023-04-25T05:33:35;11.33;85.07
69546;SHT31;56766;52.260;20.746;2023-04-25T05:36:01;11.33;85.09
69546;SHT31;56766;52.260;20.746;2023-04-25T05:38:27;11.31;85.07
69546;SHT31;56766;52.260;20.746;2023-04-25T05:40:53;11.32;85.18
69546;SHT31;56766;52.260;20.746;2023-04-25T05:43:20;11.37;85.22
69546;SHT31;56766;52.260;20.746;2023-04-25T05:45:47;11.39;85.30
69546;SHT31;56766;52.260;20.746;2023-04-25T05:48:13;11.42;85.32
69546;SHT31;56766;52.260;20.746;2023-04-25T05:50:39;11.41;85.22
69546;SHT31;56766;52.260;20.746;2023-04-25T05:53:05;11.41;85.23
69546;SHT31;56766;52.260;20.746;2023-04-25T05:55:32;11.39;85.21
69546;SHT31;56766;52.260;20.746;2023-04-25T05:57:58;11.38;85.21
69546;SHT31;56766;52.260;20.746;2023-04-25T06:00:24;11.41;85.20
69546;SHT31;56766;52.260;20.746;2023-04-25T06:02:50;11.44;85.18
69546;SHT31;56766;52.260;20.746;2023-04-25T06:05:18;11.46;85.11
69546;SHT31;56766;52.260;20.746;2023-04-25T06:07:44;11.46;85.09
69546;SHT31;56766;52.260;20.746;2023-04-25T06:10:10;11.50;84.94
69546;SHT31;56766;52.260;20.746;2023-04-25T06:12:36;11.48;84.88
69546;SHT31;56766;52.260;20.746;2023-04-25T06:15:09;11.46;84.72
69546;SHT31;56766;52.260;20.746;2023-04-25T06:17:36;11.42;84.68
69546;SHT31;56766;52.260;20.746;2023-04-25T06:20:03;11.40;84.68
69546;SHT31;56766;52.260;20.746;2023-04-25T06:22:29;11.39;84.53
69546;SHT31;56766;52.260;20.746;2023-04-25T06:24:55;11.34;84.19
69546;SHT31;56766;52.260;20.746;2023-04-25T06:27:24;11.27;84.10
69546;SHT31;56766;52.260;20.746;2023-04-25T06:29:50;11.23;84.23
69546;SHT31;56766;52.260;20.746;2023-04-25T06:32:17;11.21;84.37
69546;SHT31;56766;52.260;20.746;2023-04-25T06:34:43;11.21;84.40
69546;SHT31;56766;52.260;20.746;2023-04-25T06:37:09;11.16;84.37
69546;SHT31;56766;52.260;20.746;2023-04-25T06:39:35;11.12;84.38
69546;SHT31;56766;52.260;20.746;2023-04-25T06:42:01;11.08;84.34
69546;SHT31;56766;52.260;20.746;2023-04-25T06:44:27;11.03;84.28
69546;SHT31;56766;52.260;20.746;2023-04-25T06:46:55;10.99;84.21
69546;SHT31;56766;52.260;20.746;2023-04-25T06:49:21;10.91;84.31
69546;SHT31;56766;52.260;20.746;2023-04-25T06:51:47;10.89;84.53
69546;SHT31;56766;52.260;20.746;2023-04-25T06:54:14;10.82;84.44
69546;SHT31;56766;52.260;20.746;2023-04-25T06:56:40;10.78;84.58
69546;SHT31;56766;52.260;20.746;2023-04-25T06:59:06;10.79;84.76
69546;SHT31;56766;52.260;20.746;2023-04-25T07:01:32;10.86;84.90
69546;SHT31;56766;52.260;20.746;2023-04-25T07:03:57;10.93;84.95
69546;SHT31;56766;52.260;20.746;2023-04-25T07:06:23;10.94;84.96
69546;SHT31;56766;52.260;20.746;2023-04-25T07:08:51;11.00;85.05
69546;SHT31;56766;52.260;20.746;2023-04-25T07:11:17;11.03;85.06
69546;SHT31;56766;52.260;20.746;2023-04-25T07:13:43;11.06;85.06
69546;SHT31;56766;52.260;20.746;2023-04-25T07:16:09;11.11;84.96
69546;SHT31;56766;52.260;20.746;2023-04-25T07:18:35;11.10;84.79
69546;SHT31;56766;52.260;20.746;2023-04-25T07:21:02;11.05;84.57
69546;SHT31;56766;52.260;20.746;2023-04-25T07:23:30;10.97;84.62
69546;SHT31;56766;52.260;20.746;2023-04-25T07:25:57;10.87;84.58
69546;SHT31;56766;52.260;20.746;2023-04-25T07:28:23;10.81;84.61
69546;SHT31;56766;52.260;20.746;2023-04-25T07:30:49;10.71;84.59
69546;SHT31;56766;52.260;20.746;2023-04-25T07:33:15;10.63;84.67
69546;SHT31;56766;52.260;20.746;2023-04-25T07:35:41;10.57;84.83
69546;SHT31;56766;52.260;20.746;2023-04-25T07:38:07;10.56;84.93
69546;SHT31;56766;52.260;20.746;2023-04-25T07:40:33;10.51;84.92
69546;SHT31;56766;52.260;20.746;2023-04-25T07:42:59;10.46;84.98
69546;SHT31;56766;52.260;20.746;2023-04-25T07:45:26;10.47;85.08
69546;SHT31;56766;52.260;20.746;2023-04-25T07:47:52;10.50;85.20
69546;SHT31;56766;52.260;20.746;2023-04-25T07:50:18;10.53;85.14
69546;SHT31;56766;52.260;20.746;2023-04-25T07:52:44;10.60;85.30
69546;SHT31;56766;52.260;20.746;2023-04-25T07:55:10;10.69;85.21
69546;SHT31;56766;52.260;20.746;2023-04-25T07:57:36;10.80;85.17
69546;SHT31;56766;52.260;20.746;2023-04-25T08:00:03;10.84;84.96
69546;SHT31;56766;52.260;20.746;2023-04-25T08:02:31;10.88;84.99
69546;SHT31;56766;52.260;20.746;2023-04-25T08:04:57;10.93;84.79
69546;SHT31;56766;52.260;20.746;2023-04-25T08:07:23;10.90;84.52
69546;SHT31;56766;52.260;20.746;2023-04-25T08:09:48;10.95;84.71
69546;SHT31;56766;52.260;20.746;2023-04-25T08:12:14;11.08;84.65
69546;SHT31;56766;52.260;20.746;2023-04-25T08:14:40;11.26;84.03
69546;SHT31;56766;52.260;20.746;2023-04-25T08:17:06;11.48;83.94
69546;SHT31;56766;52.260;20.746;2023-04-25T08:19:32;11.76;83.69
69546;SHT31;56766;52.260;20.746;2023-04-25T08:21:58;12.05;83.14
69546;SHT31;56766;52.260;20.746;2023-04-25T08:24:24;12.32;82.61
69546;SHT31;56766;52.260;20.746;2023-04-25T08:26:51;12.45;81.93
69546;SHT31;56766;52.260;20.746;2023-04-25T08:29:18;12.57;81.65
69546;SHT31;56766;52.260;20.746;2023-04-25T08:31:43;12.54;80.90
69546;SHT31;56766;52.260;20.746;2023-04-25T08:34:09;12.49;80.94
69546;SHT31;56766;52.260;20.746;2023-04-25T08:36:36;12.50;80.23
69546;SHT31;56766;52.260;20.746;2023-04-25T08:39:03;12.53;80.82
69546;SHT31;56766;52.260;20.746;2023-04-25T08:41:30;12.55;79.88
69546;SHT31;56766;52.260;20.746;2023-04-25T08:43:56;12.41;79.73
69546;SHT31;56766;52.260;20.746;2023-04-25T08:46:25;12.30;80.27
69546;SHT31;56766;52.260;20.746;2023-04-25T08:48:53;12.18;79.71
69546;SHT31;56766;52.260;20.746;2023-04-25T08:51:27;12.08;79.81
69546;SHT31;56766;52.260;20.746;2023-04-25T08:54:09;12.19;80.31
69546;SHT31;56766;52.260;20.746;2023-04-25T08:56:43;12.40;80.08
69546;SHT31;56766;52.260;20.746;2023-04-25T08:59:12;12.58;79.57
69546;SHT31;56766;52.260;20.746;2023-04-25T09:01:38;12.59;78.36
69546;SHT31;56766;52.260;20.746;2023-04-25T09:04:04;12.50;78.46
69546;SHT31;56766;52.260;20.746;2023-04-25T09:06:31;12.55;78.67
69546;SHT31;56766;52.260;20.746;2023-04-25T09:09:04;12.62;78.90
69546;SHT31;56766;52.260;20.746;2023-04-25T09:11:34;12.65;78.75
69546;SHT31;56766;52.260;20.746;2023-04-25T09:14:16;12.61;78.74
69546;SHT31;56766;52.260;20.746;2023-04-25T09:16:59;12.60;79.01
69546;SHT31;56766;52.260;20.746;2023-04-25T09:19:32;12.56;79.05
69546;SHT31;56766;52.260;20.746;2023-04-25T09:22:06;12.48;78.74
69546;SHT31;56766;52.260;20.746;2023-04-25T09:24:42;12.41;78.51
69546;SHT31;56766;52.260;20.746;2023-04-25T09:27:17;12.32;78.73
69546;SHT31;56766;52.260;20.746;2023-04-25T09:29:56;12.20;78.03
69546;SHT31;56766;52.260;20.746;2023-04-25T09:32:26;12.04;78.15
69546;SHT31;56766;52.260;20.746;2023-04-25T09:34:55;11.93;78.39
69546;SHT31;56766;52.260;20.746;2023-04-25T09:37:28;11.89;78.91
69546;SHT31;56766;52.260;20.746;2023-04-25T09:39:57;11.90;79.34
69546;SHT31;56766;52.260;20.746;2023-04-25T09:42:28;11.91;79.32
69546;SHT31;56766;52.260;20.746;2023-04-25T09:44:58;11.91;79.61
69546;SHT31;56766;52.260;20.746;2023-04-25T09:47:27;11.87;79.46
69546;SHT31;56766;52.260;20.746;2023-04-25T09:49:54;11.81;79.53
69546;SHT31;56766;52.260;20.746;2023-04-25T09:52:23;11.77;79.48
69546;SHT31;56766;52.260;20.746;2023-04-25T09:54:51;11.80;79.67
69546;SHT31;56766;52.260;20.746;2023-04-25T09:57:23;11.89;79.85
69546;SHT31;56766;52.260;20.746;2023-04-25T09:59:54;12.03;80.06
69546;SHT31;56766;52.260;20.746;2023-04-25T10:02:24;12.14;79.67
69546;SHT31;56766;52.260;20.746;2023-04-25T10:04:53;12.15;78.64
69546;SHT31;56766;52.260;20.746;2023-04-25T10:07:23;12.06;78.37
69546;SHT31;56766;52.260;20.746;2023-04-25T10:09:58;11.93;78.40
69546;SHT31;56766;52.260;20.746;2023-04-25T10:12:27;11.89;78.94
69546;SHT31;56766;52.260;20.746;2023-04-25T10:14:54;11.88;79.12
69546;SHT31;56766;52.260;20.746;2023-04-25T10:17:21;11.92;79.14
69546;SHT31;56766;52.260;20.746;2023-04-25T10:19:48;11.98;79.49
69546;SHT31;56766;52.260;20.746;2023-04-25T10:22:23;12.06;79.47
69546;SHT31;56766;52.260;20.746;2023-04-25T10:24:56;12.10;79.27
69546;SHT31;56766;52.260;20.746;2023-04-25T10:27:22;12.10;79.09
69546;SHT31;56766;52.260;20.746;2023-04-25T10:30:03;12.05;79.20
69546;SHT31;56766;52.260;20.746;2023-04-25T10:32:38;11.99;79.06
69546;SHT31;56766;52.260;20.746;2023-04-25T10:35:12;11.86;78.88
69546;SHT31;56766;52.260;20.746;2023-04-25T10:38:09;11.77;78.96
69546;SHT31;56766;52.260;20.746;2023-04-25T10:40:36;11.75;79.10
69546;SHT31;56766;52.260;20.746;2023-04-25T10:45:57;11.78;79.26
69546;SHT31;56766;52.260;20.746;2023-04-25T10:48:26;11.74;78.71
69546;SHT31;56766;52.260;20.746;2023-04-25T10:51:09;11.73;78.69
69546;SHT31;56766;52.260;20.746;2023-04-25T10:53:36;11.66;78.36
69546;SHT31;56766;52.260;20.746;2023-04-25T10:56:18;11.55;77.59
69546;SHT31;56766;52.260;20.746;2023-04-25T10:58:46;11.43;78.06
69546;SHT31;56766;52.260;20.746;2023-04-25T11:01:13;11.44;78.10
69546;SHT31;56766;52.260;20.746;2023-04-25T11:03:43;11.47;78.23
69546;SHT31;56766;52.260;20.746;2023-04-25T11:06:20;11.55;78.41
69546;SHT31;56766;52.260;20.746;2023-04-25T11:08:50;11.59;78.28
69546;SHT31;56766;52.260;20.746;2023-04-25T11:11:17;11.63;77.96
69546;SHT31;56766;52.260;20.746;2023-04-25T11:13:48;11.62;78.03
69546;SHT31;56766;52.260;20.746;2023-04-25T11:16:16;11.59;77.50
69546;SHT31;56766;52.260;20.746;2023-04-25T11:18:44;11.55;77.74
69546;SHT31;56766;52.260;20.746;2023-04-25T11:21:11;11.52;77.76
69546;SHT31;56766;52.260;20.746;2023-04-25T11:23:39;11.45;77.76
69546;SHT31;56766;52.260;20.746;2023-04-25T11:26:05;11.40;77.59
69546;SHT31;56766;52.260;20.746;2023-04-25T11:28:31;11.35;77.56
69546;SHT31;56766;52.260;20.746;2023-04-25T11:30:57;11.33;77.88
69546;SHT31;56766;52.260;20.746;2023-04-25T11:33:23;11.31;77.81
69546;SHT31;56766;52.260;20.746;2023-04-25T11:35:54;11.30;77.63
69546;SHT31;56766;52.260;20.746;2023-04-25T11:38:24;11.28;77.23
69546;SHT31;56766;52.260;20.746;2023-04-25T11:40:54;11.23;76.44
69546;SHT31;56766;52.260;20.746;2023-04-25T11:43:22;11.24;76.53
69546;SHT31;56766;52.260;20.746;2023-04-25T11:45:49;11.35;76.34
69546;SHT31;56766;52.260;20.746;2023-04-25T11:48:18;11.53;76.33
69546;SHT31;56766;52.260;20.746;2023-04-25T11:50:44;11.65;75.90
69546;SHT31;56766;52.260;20.746;2023-04-25T11:53:11;11.77;76.33
69546;SHT31;56766;52.260;20.746;2023-04-25T11:55:37;11.90;76.29
69546;SHT31;56766;52.260;20.746;2023-04-25T11:58:04;12.02;75.99
69546;SHT31;56766;52.260;20.746;2023-04-25T12:00:31;12.10;75.76
69546;SHT31;56766;52.260;20.746;2023-04-25T12:02:57;12.20;75.94
69546;SHT31;56766;52.260;20.746;2023-04-25T12:05:27;12.23;75.19
69546;SHT31;56766;52.260;20.746;2023-04-25T12:07:56;12.30;75.55
69546;SHT31;56766;52.260;20.746;2023-04-25T12:10:24;12.33;74.52
69546;SHT31;56766;52.260;20.746;2023-04-25T12:12:51;12.26;73.98
69546;SHT31;56766;52.260;20.746;2023-04-25T12:15:23;12.25;74.98
69546;SHT31;56766;52.260;20.746;2023-04-25T12:17:52;12.35;75.32
69546;SHT31;56766;52.260;20.746;2023-04-25T12:20:25;12.45;75.20
69546;SHT31;56766;52.260;20.746;2023-04-25T12:22:52;12.51;75.13
69546;SHT31;56766;52.260;20.746;2023-04-25T12:25:39;12.55;74.71
69546;SHT31;56766;52.260;20.746;2023-04-25T12:28:19;12.57;74.60
69546;SHT31;56766;52.260;20.746;2023-04-25T12:33:21;12.61;74.59
69546;SHT31;56766;52.260;20.746;2023-04-25T12:35:48;12.54;74.10
69546;SHT31;56766;52.260;20.746;2023-04-25T12:38:41;12.47;74.26
69546;SHT31;56766;52.260;20.746;2023-04-25T12:41:09;12.48;74.49
69546;SHT31;56766;52.260;20.746;2023-04-25T12:43:35;12.49;74.41
69546;SHT31;56766;52.260;20.746;2023-04-25T12:46:01;12.47;73.73
69546;SHT31;56766;52.260;20.746;2023-04-25T12:48:27;12.43;74.06
69546;SHT31;56766;52.260;20.746;2023-04-25T12:50:53;12.43;74.35
69546;SHT31;56766;52.260;20.746;2023-04-25T12:53:21;12.43;74.60
69546;SHT31;56766;52.260;20.746;2023-04-25T12:55:50;12.46;74.84
69546;SHT31;56766;52.260;20.746;2023-04-25T12:58:18;12.55;75.24
69546;SHT31;56766;52.260;20.746;2023-04-25T13:00:47;12.63;74.61
69546;SHT31;56766;52.260;20.746;2023-04-25T13:03:13;12.63;74.83
69546;SHT31;56766;52.260;20.746;2023-04-25T13:05:39;12.63;74.97
69546;SHT31;56766;52.260;20.746;2023-04-25T13:08:05;12.63;74.95
69546;SHT31;56766;52.260;20.746;2023-04-25T13:10:32;12.64;75.36
69546;SHT31;56766;52.260;20.746;2023-04-25T13:12:59;12.73;75.45
69546;SHT31;56766;52.260;20.746;2023-04-25T13:15:27;12.70;74.77
69546;SHT31;56766;52.260;20.746;2023-04-25T13:17:53;12.63;75.12
69546;SHT31;56766;52.260;20.746;2023-04-25T13:20:19;12.56;74.97
69546;SHT31;56766;52.260;20.746;2023-04-25T13:22:48;12.50;74.95
69546;SHT31;56766;52.260;20.746;2023-04-25T13:25:15;12.44;75.04
69546;SHT31;56766;52.260;20.746;2023-04-25T13:27:42;12.43;75.12
69546;SHT31;56766;52.260;20.746;2023-04-25T13:30:09;12.42;75.15
69546;SHT31;56766;52.260;20.746;2023-04-25T13:32:37;12.37;75.09
69546;SHT31;56766;52.260;20.746;2023-04-25T13:35:09;12.38;75.57
69546;SHT31;56766;52.260;20.746;2023-04-25T13:37:38;12.44;75.85
69546;SHT31;56766;52.260;20.746;2023-04-25T13:40:07;12.51;75.46
69546;SHT31;56766;52.260;20.746;2023-04-25T13:42:38;12.62;75.69
69546;SHT31;56766;52.260;20.746;2023-04-25T13:45:06;12.71;75.19
69546;SHT31;56766;52.260;20.746;2023-04-25T13:47:34;12.82;75.14
69546;SHT31;56766;52.260;20.746;2023-04-25T13:50:00;12.96;75.02
69546;SHT31;56766;52.260;20.746;2023-04-25T13:52:29;13.06;74.99
69546;SHT31;56766;52.260;20.746;2023-04-25T13:54:55;13.18;74.72
69546;SHT31;56766;52.260;20.746;2023-04-25T13:57:21;13.23;73.55
69546;SHT31;56766;52.260;20.746;2023-04-25T13:59:47;13.35;74.14
69546;SHT31;56766;52.260;20.746;2023-04-25T14:02:13;13.48;73.76
69546;SHT31;56766;52.260;20.746;2023-04-25T14:04:40;13.55;73.44
69546;SHT31;56766;52.260;20.746;2023-04-25T14:07:07;13.59;73.19
69546;SHT31;56766;52.260;20.746;2023-04-25T14:09:33;13.38;72.08
69546;SHT31;56766;52.260;20.746;2023-04-25T14:11:58;13.03;72.61
69546;SHT31;56766;52.260;20.746;2023-04-25T14:14:25;12.77;73.62
69546;SHT31;56766;52.260;20.746;2023-04-25T14:16:51;12.55;74.04
69546;SHT31;56766;52.260;20.746;2023-04-25T14:19:20;12.36;74.87
69546;SHT31;56766;52.260;20.746;2023-04-25T14:21:48;12.30;75.70
69546;SHT31;56766;52.260;20.746;2023-04-25T14:24:14;12.31;75.93
69546;SHT31;56766;52.260;20.746;2023-04-25T14:26:40;12.28;76.36
69546;SHT31;56766;52.260;20.746;2023-04-25T14:29:09;12.29;76.44
69546;SHT31;56766;52.260;20.746;2023-04-25T14:31:40;12.21;75.68
69546;SHT31;56766;52.260;20.746;2023-04-25T14:34:06;12.13;75.83
69546;SHT31;56766;52.260;20.746;2023-04-25T14:36:33;12.07;75.67
69546;SHT31;56766;52.260;20.746;2023-04-25T14:39:00;12.04;75.88
69546;SHT31;56766;52.260;20.746;2023-04-25T14:41:27;12.06;76.19
69546;SHT31;56766;52.260;20.746;2023-04-25T14:43:54;12.05;76.01
69546;SHT31;56766;52.260;20.746;2023-04-25T14:46:22;12.05;75.91
69546;SHT31;56766;52.260;20.746;2023-04-25T14:48:49;12.06;76.01
69546;SHT31;56766;52.260;20.746;2023-04-25T14:51:16;12.09;75.74
69546;SHT31;56766;52.260;20.746;2023-04-25T14:53:43;12.08;75.77
69546;SHT31;56766;52.260;20.746;2023-04-25T14:56:10;12.11;75.98
69546;SHT31;56766;52.260;20.746;2023-04-25T14:58:36;12.10;75.94
69546;SHT31;56766;52.260;20.746;2023-04-25T15:01:02;12.08;75.78
69546;SHT31;56766;52.260;20.746;2023-04-25T15:03:28;12.05;75.81
69546;SHT31;56766;52.260;20.746;2023-04-25T15:05:55;11.98;75.24
69546;SHT31;56766;52.260;20.746;2023-04-25T15:08:21;11.85;75.41
69546;SHT31;56766;52.260;20.746;2023-04-25T15:10:48;11.75;75.30
69546;SHT31;56766;52.260;20.746;2023-04-25T15:13:20;11.61;75.10
69546;SHT31;56766;52.260;20.746;2023-04-25T15:15:51;11.49;75.67
69546;SHT31;56766;52.260;20.746;2023-04-25T15:18:21;11.43;76.17
69546;SHT31;56766;52.260;20.746;2023-04-25T15:20:59;11.38;76.16
69546;SHT31;56766;52.260;20.746;2023-04-25T15:23:34;11.28;76.48
69546;SHT31;56766;52.260;20.746;2023-04-25T15:26:01;11.17;76.45